sensor_id;sensor_type;location;lat;lon;timestamp;P1;durP1;ratioP1;P2;durP2;ratioP2
20104;SDS011;10212;42.714;23.310;2024-02-16T00:07:28;26.50;;;13.32;;
20104;SDS011;10212;42.714;23.310;2024-02-16T00:17:28;26.52;;;12.13;;
20104;SDS011;10212;42.714;23.310;2024-02-16T00:27:29;22.55;;;11.35;;
20104;SDS011;10212;42.714;23.310;2024-02-16T00:37:30;21.23;;;10.73;;
20104;SDS011;10212;42.714;23.310;2024-02-16T00:47:30;23.30;;;10.70;;
20104;SDS011;10212;42.714;23.310;2024-02-16T00:57:30;23.85;;;11.73;;
20104;SDS011;10212;42.714;23.310;2024-02-16T01:07:31;22.95;;;10.85;;
20104;SDS011;10212;42.714;23.310;2024-02-16T01:17:32;23.40;;;11.70;;
20104;SDS011;10212;42.714;23.310;2024-02-16T01:27:32;25.23;;;12.30;;
20104;SDS011;10212;42.714;23.310;2024-02-16T01:37:33;23.10;;;11.63;;
20104;SDS011;10212;42.714;23.310;2024-02-16T01:47:33;22.65;;;11.65;;
20104;SDS011;10212;42.714;23.310;2024-02-16T01:57:34;23.42;;;12.23;;
20104;SDS011;10212;42.714;23.310;2024-02-16T02:07:34;24.70;;;12.23;;
20104;SDS011;10212;42.714;23.310;2024-02-16T02:17:35;30.63;;;12.95;;
20104;SDS011;10212;42.714;23.310;2024-02-16T02:27:35;28.65;;;13.57;;
20104;SDS011;10212;42.714;23.310;2024-02-16T02:37:36;25.52;;;13.07;;
20104;SDS011;10212;42.714;23.310;2024-02-16T02:47:37;26.45;;;12.35;;
20104;SDS011;10212;42.714;23.310;2024-02-16T02:57:37;29.67;;;13.18;;
20104;SDS011;10212;42.714;23.310;2024-02-16T03:07:37;28.77;;;14.15;;
20104;SDS011;10212;42.714;23.310;2024-02-16T03:17:38;33.20;;;13.40;;
20104;SDS011;10212;42.714;23.310;2024-02-16T03:27:39;24.65;;;11.20;;
20104;SDS011;10212;42.714;23.310;2024-02-16T03:48:33;17.73;;;9.32;;
20104;SDS011;10212;42.714;23.310;2024-02-16T03:58:44;19.83;;;10.73;;
20104;SDS011;10212;42.714;23.310;2024-02-16T04:08:55;22.42;;;10.52;;
20104;SDS011;10212;42.714;23.310;2024-02-16T04:19:10;21.38;;;10.07;;
20104;SDS011;10212;42.714;23.310;2024-02-16T04:29:10;22.33;;;10.98;;
20104;SDS011;10212;42.714;23.310;2024-02-16T04:39:11;26.02;;;11.57;;
20104;SDS011;10212;42.714;23.310;2024-02-16T04:49:14;27.13;;;12.90;;
20104;SDS011;10212;42.714;23.310;2024-02-16T04:59:15;25.02;;;12.45;;
20104;SDS011;10212;42.714;23.310;2024-02-16T05:09:16;25.92;;;12.75;;
20104;SDS011;10212;42.714;23.310;2024-02-16T05:19:16;26.85;;;13.70;;
20104;SDS011;10212;42.714;23.310;2024-02-16T05:29:17;28.65;;;14.02;;
20104;SDS011;10212;42.714;23.310;2024-02-16T05:39:17;28.33;;;14.63;;
20104;SDS011;10212;42.714;23.310;2024-02-16T05:49:26;34.10;;;16.00;;
20104;SDS011;10212;42.714;23.310;2024-02-16T05:59:26;33.80;;;16.27;;
20104;SDS011;10212;42.714;23.310;2024-02-16T06:09:27;37.97;;;18.45;;
20104;SDS011;10212;42.714;23.310;2024-02-16T06:19:33;35.45;;;15.90;;
20104;SDS011;10212;42.714;23.310;2024-02-16T06:29:34;36.97;;;15.32;;
20104;SDS011;10212;42.714;23.310;2024-02-16T06:39:34;35.63;;;16.05;;
20104;SDS011;10212;42.714;23.310;2024-02-16T06:49:35;60.63;;;29.05;;
20104;SDS011;10212;42.714;23.310;2024-02-16T06:59:35;49.60;;;24.38;;
20104;SDS011;10212;42.714;23.310;2024-02-16T07:09:36;39.25;;;18.80;;
20104;SDS011;10212;42.714;23.310;2024-02-16T07:19:36;37.95;;;18.10;;
20104;SDS011;10212;42.714;23.310;2024-02-16T07:29:37;33.60;;;17.05;;
20104;SDS011;10212;42.714;23.310;2024-02-16T07:39:39;33.92;;;14.43;;
20104;SDS011;10212;42.714;23.310;2024-02-16T07:49:40;28.70;;;14.48;;
20104;SDS011;10212;42.714;23.310;2024-02-16T07:59:41;29.52;;;12.73;;
20104;SDS011;10212;42.714;23.310;2024-02-16T08:09:47;24.88;;;12.05;;
20104;SDS011;10212;42.714;23.310;2024-02-16T08:19:52;27.98;;;13.57;;
20104;SDS011;10212;42.714;23.310;2024-02-16T08:29:54;30.85;;;13.32;;
20104;SDS011;10212;42.714;23.310;2024-02-16T08:39:54;20.58;;;10.32;;
20104;SDS011;10212;42.714;23.310;2024-02-16T08:49:54;23.65;;;11.32;;
20104;SDS011;10212;42.714;23.310;2024-02-16T08:59:55;27.90;;;12.27;;
20104;SDS011;10212;42.714;23.310;2024-02-16T09:09:56;24.00;;;12.00;;
20104;SDS011;10212;42.714;23.310;2024-02-16T09:19:56;22.02;;;9.50;;
20104;SDS011;10212;42.714;23.310;2024-02-16T09:29:57;12.75;;;5.80;;
20104;SDS011;10212;42.714;23.310;2024-02-16T09:39:57;13.05;;;6.43;;
20104;SDS011;10212;42.714;23.310;2024-02-16T09:49:58;8.23;;;5.90;;
20104;SDS011;10212;42.714;23.310;2024-02-16T09:59:58;11.35;;;6.68;;
20104;SDS011;10212;42.714;23.310;2024-02-16T10:09:59;13.50;;;6.72;;
20104;SDS011;10212;42.714;23.310;2024-02-16T10:19:59;14.63;;;7.05;;
20104;SDS011;10212;42.714;23.310;2024-02-16T10:30:07;7.07;;;3.40;;
20104;SDS011;10212;42.714;23.310;2024-02-16T10:40:10;7.38;;;4.10;;
20104;SDS011;10212;42.714;23.310;2024-02-16T10:50:13;6.60;;;4.00;;
20104;SDS011;10212;42.714;23.310;2024-02-16T11:00:14;5.18;;;3.90;;
20104;SDS011;10212;42.714;23.310;2024-02-16T11:10:17;8.50;;;4.38;;
20104;SDS011;10212;42.714;23.310;2024-02-16T11:20:17;8.02;;;4.43;;
20104;SDS011;10212;42.714;23.310;2024-02-16T11:30:19;6.25;;;3.70;;
20104;SDS011;10212;42.714;23.310;2024-02-16T11:40:19;4.88;;;3.28;;
20104;SDS011;10212;42.714;23.310;2024-02-16T11:50:20;5.28;;;3.13;;
20104;SDS011;10212;42.714;23.310;2024-02-16T12:00:20;6.45;;;3.70;;
20104;SDS011;10212;42.714;23.310;2024-02-16T12:10:21;5.68;;;3.53;;
20104;SDS011;10212;42.714;23.310;2024-02-16T12:20:21;5.88;;;4.07;;
20104;SDS011;10212;42.714;23.310;2024-02-16T12:30:22;6.63;;;3.55;;
20104;SDS011;10212;42.714;23.310;2024-02-16T12:40:22;8.00;;;3.47;;
20104;SDS011;10212;42.714;23.310;2024-02-16T12:50:22;6.80;;;3.80;;
20104;SDS011;10212;42.714;23.310;2024-02-16T13:00:23;6.47;;;3.90;;
20104;SDS011;10212;42.714;23.310;2024-02-16T13:10:23;5.40;;;3.80;;
20104;SDS011;10212;42.714;23.310;2024-02-16T13:20:24;5.20;;;3.30;;
20104;SDS011;10212;42.714;23.310;2024-02-16T13:30:25;6.70;;;3.70;;
20104;SDS011;10212;42.714;23.310;2024-02-16T13:40:27;7.30;;;3.90;;
20104;SDS011;10212;42.714;23.310;2024-02-16T13:50:28;7.05;;;4.18;;
20104;SDS011;10212;42.714;23.310;2024-02-16T14:00:28;6.93;;;4.03;;
20104;SDS011;10212;42.714;23.310;2024-02-16T14:10:28;6.15;;;3.65;;
20104;SDS011;10212;42.714;23.310;2024-02-16T14:20:29;5.93;;;3.30;;
20104;SDS011;10212;42.714;23.310;2024-02-16T14:30:29;5.50;;;3.40;;
20104;SDS011;10212;42.714;23.310;2024-02-16T14:40:32;5.57;;;3.70;;
20104;SDS011;10212;42.714;23.310;2024-02-16T14:50:33;3.92;;;2.75;;
20104;SDS011;10212;42.714;23.310;2024-02-16T15:00:35;6.00;;;2.95;;
20104;SDS011;10212;42.714;23.310;2024-02-16T15:10:36;4.85;;;4.00;;
20104;SDS011;10212;42.714;23.310;2024-02-16T15:20:36;7.68;;;3.53;;
20104;SDS011;10212;42.714;23.310;2024-02-16T15:30:36;7.18;;;3.92;;
20104;SDS011;10212;42.714;23.310;2024-02-16T15:40:37;7.55;;;4.40;;
20104;SDS011;10212;42.714;23.310;2024-02-16T15:50:37;10.43;;;5.43;;
20104;SDS011;10212;42.714;23.310;2024-02-16T16:00:41;8.98;;;5.28;;
20104;SDS011;10212;42.714;23.310;2024-02-16T16:10:41;9.32;;;5.68;;
20104;SDS011;10212;42.714;23.310;2024-02-16T16:20:42;10.55;;;6.45;;
20104;SDS011;10212;42.714;23.310;2024-02-16T16:30:43;12.80;;;7.10;;
20104;SDS011;10212;42.714;23.310;2024-02-16T16:40:44;14.02;;;7.47;;
20104;SDS011;10212;42.714;23.310;2024-02-16T16:50:44;8.35;;;5.10;;
20104;SDS011;10212;42.714;23.310;2024-02-16T17:00:45;8.32;;;4.50;;
20104;SDS011;10212;42.714;23.310;2024-02-16T17:10:45;11.13;;;6.57;;
20104;SDS011;10212;42.714;23.310;2024-02-16T17:20:46;9.93;;;5.38;;
20104;SDS011;10212;42.714;23.310;2024-02-16T17:30:47;11.15;;;6.30;;
20104;SDS011;10212;42.714;23.310;2024-02-16T17:40:48;8.90;;;5.90;;
20104;SDS011;10212;42.714;23.310;2024-02-16T17:50:48;11.02;;;5.75;;
20104;SDS011;10212;42.714;23.310;2024-02-16T18:00:49;10.25;;;5.45;;
20104;SDS011;10212;42.714;23.310;2024-02-16T18:10:50;12.40;;;5.35;;
20104;SDS011;10212;42.714;23.310;2024-02-16T18:20:52;16.95;;;7.32;;
20104;SDS011;10212;42.714;23.310;2024-02-16T18:30:52;16.90;;;7.82;;
20104;SDS011;10212;42.714;23.310;2024-02-16T18:40:53;13.15;;;6.15;;
20104;SDS011;10212;42.714;23.310;2024-02-16T18:50:53;13.15;;;6.88;;
20104;SDS011;10212;42.714;23.310;2024-02-16T19:00:54;11.63;;;6.28;;
20104;SDS011;10212;42.714;23.310;2024-02-16T19:10:54;13.80;;;6.43;;
20104;SDS011;10212;42.714;23.310;2024-02-16T19:20:56;21.08;;;9.60;;
20104;SDS011;10212;42.714;23.310;2024-02-16T19:30:57;12.95;;;7.28;;
20104;SDS011;10212;42.714;23.310;2024-02-16T19:40:58;19.50;;;8.40;;
20104;SDS011;10212;42.714;23.310;2024-02-16T19:50:58;12.77;;;7.05;;
20104;SDS011;10212;42.714;23.310;2024-02-16T20:00:59;15.35;;;7.78;;
20104;SDS011;10212;42.714;23.310;2024-02-16T20:10:59;17.52;;;7.82;;
20104;SDS011;10212;42.714;23.310;2024-02-16T20:21:00;16.35;;;8.32;;
20104;SDS011;10212;42.714;23.310;2024-02-16T20:31:01;39.97;;;19.00;;
20104;SDS011;10212;42.714;23.310;2024-02-16T20:41:05;37.10;;;16.98;;
20104;SDS011;10212;42.714;23.310;2024-02-16T20:51:05;50.00;;;20.48;;
20104;SDS011;10212;42.714;23.310;2024-02-16T21:01:08;42.78;;;20.25;;
20104;SDS011;10212;42.714;23.310;2024-02-16T21:11:08;42.42;;;20.67;;
20104;SDS011;10212;42.714;23.310;2024-02-16T21:21:10;46.83;;;23.08;;
20104;SDS011;10212;42.714;23.310;2024-02-16T21:31:10;49.22;;;22.20;;
20104;SDS011;10212;42.714;23.310;2024-02-16T21:41:11;47.30;;;22.15;;
20104;SDS011;10212;42.714;23.310;2024-02-16T21:51:13;45.03;;;22.25;;
20104;SDS011;10212;42.714;23.310;2024-02-16T22:01:13;46.72;;;22.75;;
20104;SDS011;10212;42.714;23.310;2024-02-16T22:11:15;47.83;;;21.75;;
20104;SDS011;10212;42.714;23.310;2024-02-16T22:21:16;45.90;;;22.52;;
20104;SDS011;10212;42.714;23.310;2024-02-16T22:31:16;47.00;;;22.48;;
20104;SDS011;10212;42.714;23.310;2024-02-16T22:41:18;50.42;;;22.92;;
20104;SDS011;10212;42.714;23.310;2024-02-16T22:51:19;50.15;;;21.33;;
20104;SDS011;10212;42.714;23.310;2024-02-16T23:01:20;52.70;;;22.05;;
20104;SDS011;10212;42.714;23.310;2024-02-16T23:11:20;38.80;;;17.13;;
20104;SDS011;10212;42.714;23.310;2024-02-16T23:21:21;29.95;;;15.52;;
20104;SDS011;10212;42.714;23.310;2024-02-16T23:31:21;39.92;;;18.20;;
20104;SDS011;10212;42.714;23.310;2024-02-16T23:41:24;34.50;;;15.75;;
20104;SDS011;10212;42.714;23.310;2024-02-16T23:51:25;42.92;;;18.35;;
